• Join FlightAware (Why Join?)
  • Login
  • US Flag 
03:42AM EDT


 

Airport Tracker/Info


-or-


 

Live Flight TrackerFlight Track Log ✈ ASQ5963 ✈ 16-Mar-2014 ✈ KFAR - KORD

Flight Track Log - Related Links

Times and Time Zones

All times are in EDT time to prevent confusion due to time zone crossing. See the ASQ5963 flight status page for this flight to view local times or setup timezone preferences in your user account.

Time Position Orientation Groundspeed Altitude Reporting Facility
EDT Latitude Longitude Course Direction KTS MPH feet Rate Location/Type
03:35PM 46.8967 -96.8161 151° Southeast 144 166 2,600  Level Minneapolis Center
03:36PM 46.8486 -96.8025 169° South 180 207 4,300 1,500 Climbing Minneapolis Center
03:37PM 46.7931 -96.7631 154° Southeast 229 264 5,700 1,860 Climbing Minneapolis Center
03:38PM 46.5119 -96.6536 152° Southeast  Level FlightAware Approximate
03:38PM 46.7244 -96.7125 153° Southeast 260 299 8,200  Level Minneapolis Center
03:39PM 46.4137 -96.5773 152° Southeast  Level FlightAware Approximate
03:39PM 46.6522 -96.6600 153° Southeast 273 314 10,300  Level Minneapolis Center
03:40PM 46.3158 -96.5003 151° Southeast  Level FlightAware Approximate
03:40PM 46.5689 -96.5989 153° Southeast 317 365 11,000  Level Minneapolis Center
03:41PM 46.4756 -96.5311 153° Southeast 352 405 12,600 1,440 Climbing Minneapolis Center
03:42PM 46.3881 -96.4672 153° Southeast 363 418 14,000 1,380 Climbing Minneapolis Center
03:43PM 46.2914 -96.3972 153° Southeast 369 425 15,500 1,260 Climbing Minneapolis Center
03:44PM 46.1922 -96.3267 154° Southeast 381 438 16,700 1,020 Climbing Minneapolis Center
03:45PM 46.1033 -96.2622 153° Southeast 390 449 17,700 840 Climbing Minneapolis Center
03:46PM 46.0025 -96.1903 154° Southeast 403 464 18,500 840 Climbing Minneapolis Center
03:47PM 45.8981 -96.1158 154° Southeast 415 478 19,500 1,080 Climbing Minneapolis Center
03:48PM 45.7683 -96.0231 153° Southeast 431 496 20,800 1,140 Climbing Minneapolis Center
03:49PM 45.6575 -95.9461 154° Southeast 440 506 21,900 960 Climbing Minneapolis Center
03:50PM 45.5456 -95.8686 154° Southeast 445 512 22,900 1,380 Climbing Minneapolis Center
03:52PM 45.4344 -95.7917 154° Southeast 446 513 24,800 1,800 Climbing Minneapolis Center
03:53PM 45.3281 -95.7161 153° Southeast 433 498 26,700 1,560 Climbing Minneapolis Center
03:54PM 45.2239 -95.6433 154° Southeast 422 486 28,100 1,140 Climbing Minneapolis Center
03:55PM 45.1175 -95.5717 155° Southeast 422 486 29,100 960 Climbing Minneapolis Center
03:56PM 45.0078 -95.4950 154° Southeast 433 498 30,200 1,080 Climbing Minneapolis Center
03:57PM 44.8731 -95.4044 155° Southeast 440 506 31,400 1,080 Climbing Minneapolis Center
03:58PM 44.7725 -95.3006 144° Southeast 449 517 32,500 720 Climbing Minneapolis Center
03:59PM 44.7133 -95.1542 120° Southeast 432 497 33,000 240 Climbing Minneapolis Center
04:00PM 44.6492 -94.9983 120° Southeast 447 514 33,000  Level Minneapolis Center
04:01PM 44.5811 -94.8328 120° Southeast 474 545 33,000  Level Minneapolis Center
04:02PM 44.5106 -94.6625 120° Southeast 494 568 33,000  Level Minneapolis Center
04:03PM 44.4303 -94.4767 121° Southeast 509 586 33,000  Level Minneapolis Center
04:04PM 44.3606 -94.3106 120° Southeast 506 582 33,000  Level Minneapolis Center
04:05PM 44.2911 -94.1469 121° Southeast 496 571 33,000  Level Minneapolis Center
04:06PM 44.2214 -93.9833 121° Southeast 496 571 33,000  Level Minneapolis Center
04:07PM 44.1531 -93.8225 121° Southeast 491 565 33,000  Level Minneapolis Center
04:08PM 44.0697 -93.6314 121° Southeast 488 562 33,000  Level Minneapolis Center
04:09PM 44.0011 -93.4728 121° Southeast 487 560 33,000  Level Minneapolis Center
04:10PM 43.9328 -93.3158 121° Southeast 483 556 33,000 -780 Level Minneapolis Center
04:11PM 43.8631 -93.1603 122° Southeast 481 554 31,400 -1,800 Descending Minneapolis Center
04:12PM 43.7869 -92.9881 121° Southeast 488 562 29,300 -2,040 Descending Minneapolis Center
04:13PM 43.7150 -92.8244 121° Southeast 497 572 27,300 -1,980 Descending Minneapolis Center
04:14PM 43.6367 -92.6489 122° Southeast 491 565 25,300 -1,140 Descending Minneapolis Center
04:15PM 43.5769 -92.5144 121° Southeast 471 542 25,000 -180 Descending Minneapolis Center
04:16PM 43.4956 -92.3364 122° Southeast 464 534 25,000  Level Minneapolis Center
04:17PM 43.4253 -92.1831 122° Southeast 469 540 25,000  Level Minneapolis Center
04:18PM 43.3558 -92.0283 122° Southeast 473 544 25,000  Level Minneapolis Center
04:19PM 43.2839 -91.8739 123° Southeast 477 549 25,000  Level Minneapolis Center
04:20PM 43.2122 -91.7175 122° Southeast 480 552 25,000  Level Minneapolis Center
04:21PM 43.1486 -91.5572 119° Southeast 480 552 25,000  Level Minneapolis Center
04:22PM 43.0919 -91.3908 115° Southeast 480 552 25,000  Level Minneapolis Center
04:23PM 43.0236 -91.1922 115° Southeast 480 552 25,000  Level Minneapolis Center
04:24PM 42.9656 -91.0278 116° Southeast 480 552 25,000  Level Minneapolis Center
04:25PM 42.9078 -90.8647 116° Southeast 480 552 25,000  Level Minneapolis Center
04:26PM 42.8506 -90.7025 116° Southeast 479 551 25,000  Level Minneapolis Center
04:28PM 42.7933 -90.5408 116° Southeast 479 551 25,000 -240 Level Minneapolis Center
04:29PM 42.7361 -90.3792 116° Southeast 478 550 24,600 -480 Descending Minneapolis Center
04:30PM 42.6586 -90.1586 115° Southeast 471 542 24,000 -300 Descending Chicago Center
04:31PM 42.6008 -89.9994 116° Southeast 472 543 24,000  Level Chicago Center
04:32PM 42.5428 -89.8472 117° Southeast 464 534 24,000 -120 Level Chicago Center
04:33PM 42.5153 -89.6594 101° East 430 495 23,800 -960 Descending Chicago Center
04:34PM 42.5131 -89.5019 91° East 424 488 22,100 -1,800 Descending Chicago Center
04:35PM 42.5108 -89.3519 91° East 409 471 20,200 -1,860 Descending Chicago Center
04:36PM 42.5083 -89.2106 91° East 384 442 18,300 -1,620 Descending Chicago Center
04:37PM 42.5075 -89.0650 90° East 386 444 16,900 -1,920 Descending Chicago Center
04:38PM 42.4972 -88.9000 95° East 372 428 14,400 -2,160 Descending Chicago Center
04:39PM 42.4603 -88.7800 113° Southeast 351 404 12,500 -1,680 Descending Chicago Center
04:40PM 42.4272 -88.6661 111° Southeast 335 386 11,000 -720 Descending Chicago Center
04:41PM 42.3961 -88.5639 112° Southeast 311 358 11,000 -360 Level Chicago Center
04:42PM 42.3217 -88.5181 156° South 295 339 10,300 -960 Descending Chicago Center
04:43PM 42.2433 -88.5117 177° South 284 327 9,100 -1,200 Descending Chicago Center
04:44PM 42.1689 -88.4961 171° South 271 312 7,800 -1,320 Descending Chicago Center
04:45PM 42.0872 -88.4533 159° South 261 300 6,400 -1,140 Descending Chicago Center
04:46PM 42.0253 -88.4039 149° Southeast 249 287 5,500 -780 Descending Chicago Center
04:48PM 41.9878 -88.3356 126° Southeast 217 250 4,900 -780 Descending Chicago Center
04:49PM 41.9825 -88.2614 95° East 190 219 4,000 -480 Descending Chicago Center
04:50PM 41.9825 -88.1931 90° East 185 213 4,000 -60 Level Chicago Center
04:51PM 41.9825 -88.1231 90° East 186 214 3,900 -540 Descending Chicago Center
04:52PM 41.9828 -88.0597 90° East 160 184 2,900 -900 Descending Chicago Center
04:53PM 41.9833 -88.0047 89° East 149 171 2,100 -840 Descending Chicago Center
04:54PM 41.9825 -87.9481 91° East 142 163 1,200 -600 Descending Chicago Center
04:55PM 41.9836 -87.9022 88° East 140 161 900 -300 Descending Chicago Center